createdAt,value
2016-05-25T00:00:05.781Z,20.73
2016-05-25T00:01:06.269Z,20.71
2016-05-25T00:02:06.677Z,20.68
2016-05-25T00:03:05.602Z,20.68
2016-05-25T00:04:05.730Z,20.66
2016-05-25T00:05:05.577Z,20.73
2016-05-25T00:06:05.705Z,20.64
2016-05-25T00:07:05.707Z,20.66
2016-05-25T00:08:05.678Z,20.66
2016-05-25T00:09:05.510Z,20.64
2016-05-25T00:10:05.652Z,20.64
2016-05-25T00:11:05.640Z,20.64
2016-05-25T00:12:05.626Z,20.63
2016-05-25T00:13:05.613Z,20.68
2016-05-25T00:14:05.601Z,20.66
2016-05-25T00:15:05.587Z,20.68
2016-05-25T00:16:05.591Z,20.72
2016-05-25T00:17:05.984Z,20.68
2016-05-25T00:18:05.549Z,20.71
2016-05-25T00:19:05.551Z,20.66
2016-05-25T00:20:05.539Z,20.66
2016-05-25T00:21:05.354Z,20.64
2016-05-25T00:22:05.528Z,20.68
2016-05-25T00:23:05.484Z,20.71
2016-05-25T00:24:05.471Z,20.64
2016-05-25T00:25:05.459Z,20.68
2016-05-25T00:26:05.445Z,20.68
2016-05-25T00:27:05.448Z,20.61
2016-05-25T00:28:05.420Z,20.6
2016-05-25T00:29:05.407Z,20.61
2016-05-25T00:30:05.378Z,20.57
2016-05-25T00:31:05.381Z,20.64
2016-05-25T00:32:05.867Z,20.61
2016-05-25T00:33:05.199Z,20.61
2016-05-25T00:34:05.186Z,20.63
2016-05-25T00:35:05.313Z,20.64
2016-05-25T00:36:05.316Z,20.69
2016-05-25T00:37:05.302Z,20.64
2016-05-25T00:38:05.119Z,20.61
2016-05-25T00:39:05.262Z,20.6
2016-05-25T00:40:05.249Z,20.61
2016-05-25T00:41:05.236Z,20.58
2016-05-25T00:42:05.238Z,20.58
2016-05-25T00:43:05.226Z,20.61
2016-05-25T00:44:05.212Z,20.58
2016-05-25T00:45:05.199Z,20.57
2016-05-25T00:46:05.171Z,20.51
2016-05-25T00:47:05.362Z,20.57
2016-05-25T00:48:05.161Z,20.58
2016-05-25T00:49:05.148Z,20.53
2016-05-25T00:50:05.135Z,20.5
2016-05-25T00:51:05.215Z,20.58
2016-05-25T00:52:05.109Z,20.57
2016-05-25T00:53:05.081Z,20.63
2016-05-25T00:54:05.067Z,20.5
2016-05-25T00:55:05.071Z,20.57
2016-05-25T00:56:05.057Z,20.48
2016-05-25T00:57:05.028Z,20.6
2016-05-25T00:58:05.016Z,20.48
2016-05-25T00:59:05.253Z,20.57
2016-05-25T01:00:04.990Z,20.54
2016-05-25T01:01:05.430Z,20.5
2016-05-25T01:02:04.980Z,20.5
2016-05-25T01:03:04.951Z,20.41
2016-05-25T01:04:04.938Z,20.53
2016-05-25T01:05:04.925Z,20.48
2016-05-25T01:06:04.912Z,20.48
2016-05-25T01:07:05.243Z,20.5
2016-05-25T01:08:04.886Z,20.48
2016-05-25T01:09:04.874Z,20.53
2016-05-25T01:10:04.861Z,20.53
2016-05-25T01:11:04.691Z,20.48
2016-05-25T01:12:04.835Z,20.5
2016-05-25T01:13:04.821Z,20.53
2016-05-25T01:14:04.652Z,20.53
2016-05-25T01:15:05.280Z,20.46
2016-05-25T01:16:04.767Z,20.5
2016-05-25T01:17:04.723Z,20.56
2016-05-25T01:18:04.757Z,20.54
2016-05-25T01:19:04.729Z,20.48
2016-05-25T01:20:04.731Z,20.57
2016-05-25T01:21:04.718Z,20.48
2016-05-25T01:22:04.706Z,20.53
2016-05-25T01:23:05.286Z,20.54
2016-05-25T01:24:04.664Z,20.54
2016-05-25T01:25:04.667Z,20.54
2016-05-25T01:26:04.653Z,20.53
2016-05-25T01:27:04.641Z,20.54
2016-05-25T01:28:04.612Z,20.44
2016-05-25T01:29:04.615Z,20.44
2016-05-25T01:30:04.586Z,20.51
2016-05-25T01:31:05.276Z,20.51
2016-05-25T01:32:04.420Z,20.51
2016-05-25T01:33:04.547Z,20.51
2016-05-25T01:34:04.534Z,20.5
2016-05-25T01:35:04.522Z,20.48
2016-05-25T01:36:04.508Z,20.51
2016-05-25T01:37:04.496Z,20.48
2016-05-25T01:38:04.498Z,20.46
2016-05-25T01:39:04.516Z,20.51
2016-05-25T01:40:04.458Z,20.56
2016-05-25T01:41:04.444Z,20.53
2016-05-25T01:42:04.431Z,20.53
2016-05-25T01:43:04.418Z,20.54
2016-05-25T01:44:04.405Z,20.48
2016-05-25T01:45:04.393Z,20.53
2016-05-25T01:46:04.379Z,20.53
2016-05-25T01:47:04.569Z,20.53
2016-05-25T01:48:04.354Z,20.48
2016-05-25T01:49:04.341Z,20.54
2016-05-25T01:50:04.171Z,20.48
2016-05-25T01:51:04.314Z,20.46
2016-05-25T01:52:04.302Z,20.46
2016-05-25T01:53:04.289Z,20.46
2016-05-25T01:54:04.307Z,20.53
2016-05-25T01:55:04.559Z,20.46
2016-05-25T01:56:04.250Z,20.53
2016-05-25T01:57:04.237Z,20.46
2016-05-25T01:58:04.208Z,20.5
2016-05-25T01:59:04.211Z,20.46
2016-05-25T02:00:04.042Z,20.5
2016-05-25T02:01:04.186Z,20.44
2016-05-25T02:02:04.064Z,20.46
2016-05-25T02:03:04.550Z,20.48
2016-05-25T02:04:04.131Z,20.44
2016-05-25T02:05:04.133Z,20.5
2016-05-25T02:06:04.105Z,20.51
2016-05-25T02:07:04.123Z,20.5
2016-05-25T02:08:03.922Z,20.48
2016-05-25T02:09:04.082Z,20.5
2016-05-25T02:10:04.210Z,20.46
2016-05-25T02:11:04.056Z,20.46
2016-05-25T02:12:03.872Z,20.46
2016-05-25T02:13:04.014Z,20.51
2016-05-25T02:14:04.017Z,20.46
2016-05-25T02:15:03.676Z,20.54
2016-05-25T02:16:03.976Z,20.5
2016-05-25T02:17:03.806Z,20.51
2016-05-25T02:18:04.293Z,20.51
2016-05-25T02:19:03.937Z,20.5
2016-05-25T02:20:03.924Z,20.5
2016-05-25T02:21:03.910Z,20.48
2016-05-25T02:22:03.742Z,20.53
2016-05-25T02:23:03.901Z,20.5
2016-05-25T02:24:03.873Z,20.53
2016-05-25T02:25:03.859Z,20.46
2016-05-25T02:26:04.206Z,20.48
2016-05-25T02:27:03.833Z,20.51
2016-05-25T02:28:03.820Z,20.46
2016-05-25T02:29:03.806Z,20.51
2016-05-25T02:30:03.794Z,20.5
2016-05-25T02:31:03.625Z,20.53
2016-05-25T02:32:03.800Z,20.44
2016-05-25T02:33:03.600Z,20.44
2016-05-25T02:34:04.243Z,20.48
2016-05-25T02:35:03.730Z,20.5
2016-05-25T02:36:03.717Z,20.37
2016-05-25T02:37:03.688Z,20.5
2016-05-25T02:38:03.691Z,20.37
2016-05-25T02:39:03.677Z,20.44
2016-05-25T02:40:03.681Z,20.5
2016-05-25T02:41:03.652Z,20.46
2016-05-25T02:42:04.233Z,20.42
2016-05-25T02:43:03.642Z,20.41
2016-05-25T02:44:03.613Z,20.42
2016-05-25T02:45:03.600Z,20.42
2016-05-25T02:46:03.588Z,20.42
2016-05-25T02:47:04.324Z,20.41
2016-05-25T02:48:03.405Z,20.44
2016-05-25T02:49:03.392Z,20.44
2016-05-25T02:50:04.223Z,20.41
2016-05-25T02:51:03.539Z,20.42
2016-05-25T02:52:03.493Z,20.44
2016-05-25T02:53:03.482Z,20.42
2016-05-25T02:54:03.328Z,20.41
2016-05-25T02:55:03.471Z,20.46
2016-05-25T02:56:03.505Z,20.42
2016-05-25T02:57:03.445Z,20.44
2016-05-25T02:58:03.510Z,20.38
2016-05-25T02:59:03.419Z,20.41
2016-05-25T03:00:03.390Z,20.35
2016-05-25T03:01:03.378Z,20.42
2016-05-25T03:02:03.553Z,20.34
2016-05-25T03:03:03.383Z,20.4
2016-05-25T03:04:03.183Z,20.4
2016-05-25T03:05:03.528Z,20.35
2016-05-25T03:06:03.532Z,20.37
2016-05-25T03:07:03.298Z,20.4
2016-05-25T03:08:03.284Z,20.42
2016-05-25T03:09:03.272Z,20.42
2016-05-25T03:10:03.258Z,20.34
2016-05-25T03:11:03.246Z,20.41
2016-05-25T03:12:03.232Z,20.42
2016-05-25T03:13:03.220Z,20.35
2016-05-25T03:14:03.550Z,20.44
2016-05-25T03:15:03.178Z,20.44
2016-05-25T03:16:03.180Z,20.38
2016-05-25T03:17:03.277Z,20.42
2016-05-25T03:18:03.155Z,20.37
2016-05-25T03:19:03.127Z,20.44
2016-05-25T03:20:03.129Z,20.35
2016-05-25T03:21:03.257Z,20.48
2016-05-25T03:22:03.541Z,20.41
2016-05-25T03:23:02.935Z,20.41
2016-05-25T03:24:02.921Z,20.44
2016-05-25T03:25:03.049Z,20.42
2016-05-25T03:26:03.037Z,20.41
2016-05-25T03:27:02.868Z,20.48
2016-05-25T03:28:03.010Z,20.48
2016-05-25T03:29:03.154Z,20.41
2016-05-25T03:30:03.000Z,20.41
2016-05-25T03:31:02.987Z,20.44
2016-05-25T03:32:02.834Z,20.44
2016-05-25T03:33:02.789Z,20.51
2016-05-25T03:34:02.933Z,20.44
2016-05-25T03:35:02.623Z,20.42
2016-05-25T03:36:02.750Z,20.42
2016-05-25T03:37:03.050Z,20.44
2016-05-25T03:38:02.881Z,20.44
2016-05-25T03:39:02.867Z,20.46
2016-05-25T03:40:02.870Z,20.44
2016-05-25T03:41:02.842Z,20.5
2016-05-25T03:42:02.672Z,20.42
2016-05-25T03:43:34.147Z,20.46
2016-05-25T03:44:02.803Z,20.44
2016-05-25T03:45:03.274Z,20.46
2016-05-25T03:46:02.761Z,20.35
2016-05-25T03:47:02.780Z,20.44
2016-05-25T03:48:02.752Z,20.41
2016-05-25T03:49:02.583Z,20.46
2016-05-25T03:50:02.710Z,20.37
2016-05-25T03:51:02.697Z,20.48
2016-05-25T03:52:02.684Z,20.44
2016-05-25T03:53:03.171Z,20.46
2016-05-25T03:54:02.518Z,20.37
2016-05-25T03:55:02.660Z,20.46
2016-05-25T03:56:02.633Z,20.44
2016-05-25T03:57:02.620Z,20.46
2016-05-25T03:58:02.623Z,20.41
2016-05-25T03:59:02.594Z,20.35
2016-05-25T04:00:02.597Z,20.34
2016-05-25T04:01:03.177Z,20.33
2016-05-25T04:02:02.554Z,20.4
2016-05-25T04:03:02.543Z,20.35
2016-05-25T04:04:02.529Z,20.37
2016-05-25T04:05:02.517Z,20.37
2016-05-25T04:06:02.348Z,20.37
2016-05-25T04:07:02.490Z,20.33
2016-05-25T04:08:02.492Z,20.35
2016-05-25T04:09:03.309Z,20.38
2016-05-25T04:10:02.295Z,20.37
2016-05-25T04:11:02.439Z,20.35
2016-05-25T04:12:02.425Z,20.33
2016-05-25T04:13:02.272Z,20.41
2016-05-25T04:14:02.400Z,20.37
2016-05-25T04:15:02.231Z,20.44
2016-05-25T04:16:02.374Z,20.41
2016-05-25T04:17:02.470Z,20.41
2016-05-25T04:18:02.363Z,20.4
2016-05-25T04:19:02.335Z,20.41
2016-05-25T04:20:02.361Z,20.42
2016-05-25T04:21:02.185Z,20.42
2016-05-25T04:22:02.367Z,20.3
2016-05-25T04:23:02.363Z,20.35
2016-05-25T04:24:02.373Z,20.38
2016-05-25T04:25:02.665Z,20.37
2016-05-25T04:26:02.380Z,20.41
2016-05-25T04:27:02.360Z,20.38
2016-05-25T04:28:02.371Z,20.4
2016-05-25T04:29:02.351Z,20.38
2016-05-25T04:30:02.357Z,20.35
2016-05-25T04:31:02.332Z,20.4
2016-05-25T04:32:03.228Z,20.35
2016-05-25T04:33:02.655Z,20.35
2016-05-25T04:34:02.317Z,20.34
2016-05-25T04:35:02.446Z,20.31
2016-05-25T04:36:02.293Z,20.38
2016-05-25T04:37:02.267Z,20.33
2016-05-25T04:38:02.254Z,20.34
2016-05-25T04:39:02.244Z,20.38
2016-05-25T04:40:02.231Z,20.3
2016-05-25T04:41:03.577Z,20.4
2016-05-25T04:42:02.050Z,20.37
2016-05-25T04:43:02.193Z,20.37
2016-05-25T04:44:02.180Z,20.31
2016-05-25T04:45:02.184Z,20.4
2016-05-25T04:46:02.154Z,20.34
2016-05-25T04:47:01.829Z,20.35
2016-05-25T04:48:02.129Z,20.33
2016-05-25T04:49:02.115Z,20.38
2016-05-25T04:50:02.118Z,20.3
2016-05-25T04:51:02.090Z,20.33
2016-05-25T04:52:02.061Z,20.33
2016-05-25T04:53:02.064Z,20.3
2016-05-25T04:54:02.050Z,20.25
2016-05-25T04:55:02.023Z,20.3
2016-05-25T04:56:02.025Z,20.26
2016-05-25T04:57:01.996Z,20.27
2016-05-25T04:58:01.999Z,20.38
2016-05-25T04:59:01.986Z,20.26
2016-05-25T05:00:01.958Z,20.33
2016-05-25T05:01:01.961Z,20.27
2016-05-25T05:02:01.947Z,20.3
2016-05-25T05:03:01.919Z,20.3
2016-05-25T05:04:01.906Z,20.33
2016-05-25T05:05:01.893Z,20.35
2016-05-25T05:06:01.880Z,20.3
2016-05-25T05:07:01.882Z,20.31
2016-05-25T05:08:01.870Z,20.33
2016-05-25T05:09:01.841Z,20.22
2016-05-25T05:10:01.828Z,20.33
2016-05-25T05:11:01.815Z,20.31
2016-05-25T05:12:01.490Z,20.31
2016-05-25T05:13:01.805Z,20.33
2016-05-25T05:14:01.792Z,20.3
2016-05-25T05:15:01.764Z,20.31
2016-05-25T05:16:01.751Z,20.3
2016-05-25T05:17:01.770Z,20.27
2016-05-25T05:18:01.725Z,20.3
2016-05-25T05:19:01.556Z,20.19
2016-05-25T05:20:01.714Z,20.2
2016-05-25T05:21:01.687Z,20.22
2016-05-25T05:22:01.720Z,20.2
2016-05-25T05:23:01.661Z,20.23
2016-05-25T05:24:01.475Z,20.17
2016-05-25T05:25:01.619Z,20.17
2016-05-25T05:26:01.606Z,20.22
2016-05-25T05:27:01.593Z,20.22
2016-05-25T05:28:01.424Z,20.17
2016-05-25T05:29:01.567Z,20.19
2016-05-25T05:30:01.710Z,20.22
2016-05-25T05:31:01.557Z,20.22
2016-05-25T05:32:01.622Z,20.23
2016-05-25T05:33:01.531Z,20.2
2016-05-25T05:34:01.502Z,20.2
2016-05-25T05:35:01.489Z,20.19
2016-05-25T05:36:01.321Z,20.19
2016-05-25T05:37:01.464Z,20.22
2016-05-25T05:38:01.747Z,20.17
2016-05-25T05:39:01.282Z,20.25
2016-05-25T05:40:01.424Z,20.17
2016-05-25T05:41:01.412Z,20.2
2016-05-25T05:42:01.399Z,20.23
2016-05-25T05:43:01.370Z,20.16
2016-05-25T05:44:01.388Z,20.2
2016-05-25T05:45:01.375Z,20.2
2016-05-25T05:46:02.566Z,20.25
2016-05-25T05:47:01.350Z,20.2
2016-05-25T05:48:01.321Z,20.25
2016-05-25T05:49:01.309Z,20.17
2016-05-25T05:50:01.279Z,20.16
2016-05-25T05:51:02.939Z,20.25
2016-05-25T05:52:01.270Z,20.19
2016-05-25T05:53:01.256Z,20.16
2016-05-25T05:54:01.744Z,20.17
2016-05-25T05:55:01.230Z,20.19
2016-05-25T05:56:02.343Z,20.19
2016-05-25T05:57:00.877Z,20.23
2016-05-25T05:58:01.036Z,20.16
2016-05-25T05:59:01.179Z,20.2
2016-05-25T06:00:00.994Z,20.2
2016-05-25T06:01:03.513Z,20.19
2016-05-25T06:02:02.296Z,20.23
2016-05-25T06:03:01.143Z,20.23
2016-05-25T06:04:01.099Z,20.22
2016-05-25T06:05:01.085Z,20.2
2016-05-25T06:06:02.151Z,20.19
2016-05-25T06:07:01.060Z,20.15
2016-05-25T06:08:01.062Z,20.2
2016-05-25T06:09:01.035Z,20.17
2016-05-25T06:10:01.037Z,20.3
2016-05-25T06:11:00.868Z,20.25
2016-05-25T06:12:00.871Z,20.13
2016-05-25T06:13:00.982Z,20.17
2016-05-25T06:14:00.969Z,20.2
2016-05-25T06:15:00.800Z,20.2
2016-05-25T06:16:00.943Z,20.22
2016-05-25T06:17:01.524Z,20.2
2016-05-25T06:18:02.839Z,20.22
2016-05-25T06:19:00.905Z,20.2
2016-05-25T06:20:00.876Z,20.2
2016-05-25T06:21:00.862Z,20.19
2016-05-25T06:22:00.866Z,20.17
2016-05-25T06:23:00.837Z,20.23
2016-05-25T06:24:00.840Z,20.25
2016-05-25T06:25:00.812Z,20.2
2016-05-25T06:26:01.017Z,20.22
2016-05-25T06:27:00.645Z,20.13
2016-05-25T06:28:00.631Z,20.2
2016-05-25T06:29:00.759Z,20.2
2016-05-25T06:30:00.761Z,20.25
2016-05-25T06:31:00.733Z,20.15
2016-05-25T06:32:01.017Z,20.23
2016-05-25T06:33:00.708Z,20.23
2016-05-25T06:34:01.852Z,20.22
2016-05-25T06:35:00.714Z,20.22
2016-05-25T06:36:00.669Z,20.22
2016-05-25T06:37:00.656Z,20.17
2016-05-25T06:38:00.488Z,20.16
2016-05-25T06:39:00.474Z,20.26
2016-05-25T06:40:00.618Z,20.2
2016-05-25T06:41:00.651Z,20.2
2016-05-25T06:42:01.030Z,20.17
2016-05-25T06:43:00.688Z,20.15
2016-05-25T06:44:00.566Z,20.22
2016-05-25T06:45:00.396Z,20.22
2016-05-25T06:46:00.368Z,20.22
2016-05-25T06:47:00.792Z,20.23
2016-05-25T06:48:00.514Z,20.19
2016-05-25T06:49:00.688Z,20.17
2016-05-25T06:50:00.472Z,20.19
2016-05-25T06:51:00.304Z,20.17
2016-05-25T06:52:00.446Z,20.22
2016-05-25T06:53:00.448Z,20.17
2016-05-25T06:54:00.281Z,20.23
2016-05-25T06:55:00.267Z,20.2
2016-05-25T06:56:00.395Z,20.2
2016-05-25T06:57:00.679Z,20.22
2016-05-25T06:58:00.212Z,20.31
2016-05-25T06:59:00.372Z,20.2
2016-05-25T07:00:00.374Z,20.19
2016-05-25T07:01:00.330Z,20.2
2016-05-25T07:02:00.348Z,20.23
2016-05-25T07:03:02.820Z,20.2
2016-05-25T07:04:00.307Z,20.2
2016-05-25T07:05:00.669Z,20.2
2016-05-25T07:06:00.109Z,20.19
2016-05-25T07:07:00.252Z,20.26
2016-05-25T07:08:00.083Z,20.19
2016-05-25T07:09:00.227Z,20.2
2016-05-25T07:10:00.057Z,20.23
2016-05-25T07:11:00.185Z,20.2
2016-05-25T07:12:00.188Z,20.23
2016-05-25T07:13:00.721Z,20.27
2016-05-25T07:14:00.162Z,20.2
2016-05-25T07:15:00.008Z,20.25
2016-05-25T07:15:59.964Z,20.3
2016-05-25T07:17:00.685Z,20.25
2016-05-25T07:18:03.657Z,20.19
2016-05-25T07:19:00.098Z,20.2
2016-05-25T07:20:00.068Z,20.2
2016-05-25T07:21:00.712Z,20.22
2016-05-25T07:22:00.043Z,20.2
2016-05-25T07:23:00.999Z,20.19
2016-05-25T07:23:59.861Z,20.19
2016-05-25T07:25:00.004Z,20.16
2016-05-25T07:25:59.991Z,20.23
2016-05-25T07:26:59.978Z,20.17
2016-05-25T07:27:59.965Z,20.22
2016-05-25T07:28:59.967Z,20.17
2016-05-25T07:29:59.767Z,20.16
2016-05-25T07:30:59.926Z,20.2
2016-05-25T07:32:00.320Z,20.31
2016-05-25T07:32:59.900Z,20.17
2016-05-25T07:33:59.888Z,20.2
2016-05-25T07:34:59.875Z,20.19
2016-05-25T07:35:59.861Z,20.25
2016-05-25T07:36:59.990Z,20.22
2016-05-25T07:37:59.836Z,20.17
2016-05-25T07:38:59.808Z,20.19
2016-05-25T07:39:59.810Z,20.27
2016-05-25T07:40:59.797Z,20.2
2016-05-25T07:41:59.784Z,20.25
2016-05-25T07:42:59.771Z,20.19
2016-05-25T07:43:59.743Z,20.26
2016-05-25T07:45:00.011Z,20.17
2016-05-25T07:45:59.732Z,20.17
2016-05-25T07:46:59.704Z,20.23
2016-05-25T07:48:01.222Z,20.2
2016-05-25T07:48:59.693Z,20.25
2016-05-25T07:49:59.525Z,20.33
2016-05-25T07:50:59.652Z,20.34
2016-05-25T07:51:59.640Z,20.38
2016-05-25T07:53:01.657Z,20.38
2016-05-25T07:53:59.692Z,20.46
2016-05-25T07:54:59.601Z,20.42
2016-05-25T07:55:59.619Z,20.5
2016-05-25T07:56:59.575Z,20.53
2016-05-25T07:58:06.764Z,20.6
2016-05-25T07:58:59.565Z,20.58
2016-05-25T07:59:59.739Z,20.48
2016-05-25T08:01:00.022Z,20.46
2016-05-25T08:01:59.791Z,20.48
2016-05-25T08:03:01.137Z,20.51
2016-05-25T08:03:59.344Z,20.48
2016-05-25T08:04:59.300Z,20.48
2016-05-25T08:05:59.458Z,20.53
2016-05-25T08:06:59.445Z,20.54
2016-05-25T08:08:01.089Z,20.5
2016-05-25T08:08:59.278Z,20.48
2016-05-25T08:09:59.391Z,20.53
2016-05-25T08:10:59.222Z,20.51
2016-05-25T08:11:59.366Z,20.53
2016-05-25T08:13:00.493Z,20.48
2016-05-25T08:13:59.338Z,20.56
2016-05-25T08:14:59.341Z,20.53
2016-05-25T08:15:59.610Z,20.53
2016-05-25T08:16:59.160Z,20.51
2016-05-25T08:18:01.132Z,20.46
2016-05-25T08:18:59.274Z,20.5
2016-05-25T08:19:59.262Z,20.46
2016-05-25T08:20:59.249Z,20.54
2016-05-25T08:21:59.235Z,20.5
2016-05-25T08:23:00.566Z,20.46
2016-05-25T08:23:59.804Z,20.5
2016-05-25T08:24:59.196Z,20.48
2016-05-25T08:25:59.184Z,20.46
2016-05-25T08:26:59.030Z,20.46
2016-05-25T08:28:01.423Z,20.48
2016-05-25T08:28:58.989Z,20.5
2016-05-25T08:29:59.132Z,20.5
2016-05-25T08:30:58.962Z,20.53
2016-05-25T08:31:59.825Z,20.48
2016-05-25T08:33:01.203Z,20.61
2016-05-25T08:33:59.081Z,20.63
2016-05-25T08:34:59.067Z,20.66
2016-05-25T08:35:59.055Z,20.63
2016-05-25T08:36:58.885Z,20.72
2016-05-25T08:38:01.717Z,20.73
2016-05-25T08:38:59.000Z,20.68
2016-05-25T08:39:59.847Z,20.68
2016-05-25T08:40:58.849Z,20.71
2016-05-25T08:41:58.961Z,20.71
2016-05-25T08:43:00.745Z,20.66
2016-05-25T08:43:58.935Z,20.63
2016-05-25T08:44:58.922Z,20.66
2016-05-25T08:45:58.925Z,20.66
2016-05-25T08:46:58.787Z,20.64
2016-05-25T08:48:00.196Z,20.63
2016-05-25T08:48:58.715Z,20.63
2016-05-25T08:49:58.857Z,20.66
2016-05-25T08:50:58.845Z,20.12
2016-05-25T08:51:58.832Z,19.68
2016-05-25T08:53:02.132Z,19.25
2016-05-25T08:53:58.806Z,18.51
2016-05-25T08:54:58.637Z,18.41
2016-05-25T08:55:58.984Z,18.2
2016-05-25T08:56:58.611Z,18.56
2016-05-25T08:57:59.457Z,18.89
2016-05-25T08:58:58.742Z,19.16
2016-05-25T08:59:58.573Z,19.45
2016-05-25T09:00:58.715Z,19.7
2016-05-25T09:01:58.703Z,19.86
2016-05-25T09:03:00.862Z,19.97
2016-05-25T09:03:58.973Z,20.05
2016-05-25T09:04:58.663Z,20.13
2016-05-25T09:05:58.651Z,20.19
2016-05-25T09:06:58.622Z,20.2
2016-05-25T09:08:00.156Z,20.23
2016-05-25T09:08:58.440Z,20.23
2016-05-25T09:09:58.583Z,20.22
2016-05-25T09:10:58.586Z,20.23
2016-05-25T09:11:59.011Z,20.27
2016-05-25T09:12:58.436Z,20.33
2016-05-25T09:13:58.532Z,20.33
2016-05-25T09:14:58.519Z,20.35
2016-05-25T09:15:58.506Z,20.33
2016-05-25T09:16:58.666Z,20.31
2016-05-25T09:18:01.745Z,20.35
2016-05-25T09:18:58.827Z,20.41
2016-05-25T09:19:58.141Z,20.35
2016-05-25T09:20:58.426Z,20.44
2016-05-25T09:21:58.429Z,20.44
2016-05-25T09:22:59.822Z,20.51
2016-05-25T09:23:58.402Z,20.5
2016-05-25T09:24:58.374Z,20.5
2016-05-25T09:25:58.220Z,20.44
2016-05-25T09:26:59.004Z,20.5
2016-05-25T09:28:00.600Z,20.5
2016-05-25T09:28:58.353Z,20.48
2016-05-25T09:29:58.325Z,20.44
2016-05-25T09:30:58.312Z,20.46
2016-05-25T09:31:58.393Z,20.56
2016-05-25T09:32:59.692Z,20.54
2016-05-25T09:33:58.257Z,20.5
2016-05-25T09:34:58.901Z,20.48
2016-05-25T09:35:58.247Z,20.5
2016-05-25T09:36:58.219Z,20.54
2016-05-25T09:38:00.549Z,20.51
2016-05-25T09:38:58.193Z,20.58
2016-05-25T09:39:58.180Z,20.57
2016-05-25T09:40:58.010Z,20.46
2016-05-25T09:41:58.154Z,20.48
2016-05-25T09:42:59.157Z,20.64
2016-05-25T09:43:58.128Z,20.58
2016-05-25T09:44:58.115Z,20.63
2016-05-25T09:45:58.102Z,20.6
2016-05-25T09:46:58.527Z,20.61
2016-05-25T09:47:59.436Z,20.69
2016-05-25T09:48:57.907Z,20.63
2016-05-25T09:49:57.879Z,20.63
2016-05-25T09:50:58.975Z,20.66
2016-05-25T09:51:58.024Z,20.68
2016-05-25T09:52:58.012Z,20.68
2016-05-25T09:53:57.983Z,20.61
2016-05-25T09:54:57.829Z,20.64
2016-05-25T09:55:57.957Z,20.58
2016-05-25T09:56:57.943Z,20.6
2016-05-25T09:57:58.572Z,20.71
2016-05-25T09:58:58.121Z,20.64
2016-05-25T09:59:57.905Z,20.63
2016-05-25T10:00:57.892Z,20.66
2016-05-25T10:01:57.895Z,20.69
2016-05-25T10:03:00.070Z,20.66
2016-05-25T10:03:57.853Z,20.63
2016-05-25T10:04:57.700Z,20.66
2016-05-25T10:05:57.828Z,20.73
2016-05-25T10:06:58.002Z,20.63
2016-05-25T10:07:57.833Z,20.72
2016-05-25T10:08:57.789Z,20.71
2016-05-25T10:09:57.464Z,20.76
2016-05-25T10:10:57.763Z,20.75
2016-05-25T10:11:57.750Z,20.73
2016-05-25T10:12:57.737Z,20.75
2016-05-25T10:13:57.896Z,20.78
2016-05-25T10:14:58.149Z,20.73
2016-05-25T10:15:57.699Z,20.79
2016-05-25T10:16:57.889Z,20.76
2016-05-25T10:17:57.673Z,20.75
2016-05-25T10:18:57.660Z,20.72
2016-05-25T10:19:57.630Z,20.75
2016-05-25T10:20:57.633Z,20.73
2016-05-25T10:21:57.761Z,20.72
2016-05-25T10:22:57.608Z,20.82
2016-05-25T10:23:57.595Z,20.79
2016-05-25T10:24:57.583Z,20.75
2016-05-25T10:25:58.694Z,20.25
2016-05-25T10:26:57.556Z,19.65
2016-05-25T10:27:57.544Z,19.42
2016-05-25T10:28:57.359Z,19.17
2016-05-25T10:29:57.751Z,19.15
2016-05-25T10:31:00.442Z,19.09
2016-05-25T10:32:00.257Z,19.07
2016-05-25T10:32:57.479Z,19.07
2016-05-25T10:33:57.450Z,19.02
2016-05-25T10:34:57.281Z,19.07
2016-05-25T10:35:57.299Z,19.01
2016-05-25T10:36:57.411Z,18.91
2016-05-25T10:37:57.804Z,19.01
2016-05-25T10:38:57.229Z,18.99
2016-05-25T10:39:57.372Z,18.94
2016-05-25T10:40:58.937Z,19.24
2016-05-25T10:41:57.347Z,19.42
2016-05-25T10:42:57.334Z,19.71
2016-05-25T10:43:57.305Z,19.82
2016-05-25T10:44:57.307Z,20.1
2016-05-25T10:45:57.466Z,20.17
2016-05-25T10:46:58.610Z,20.26
2016-05-25T10:47:57.425Z,20.3
2016-05-25T10:48:57.241Z,20.38
2016-05-25T10:49:57.243Z,20.41
2016-05-25T10:50:57.214Z,20.48
2016-05-25T10:51:57.202Z,20.53
2016-05-25T10:52:57.033Z,20.48
2016-05-25T10:53:57.832Z,20.51
2016-05-25T10:54:57.007Z,20.46
2016-05-25T10:55:57.166Z,20.54
2016-05-25T10:56:57.137Z,20.63
2016-05-25T10:57:56.968Z,20.63
2016-05-25T10:58:57.110Z,20.57
2016-05-25T10:59:57.098Z,20.57
2016-05-25T11:00:57.070Z,20.61
2016-05-25T11:01:57.322Z,20.68
2016-05-25T11:02:57.247Z,20.63
2016-05-25T11:03:57.046Z,20.69
2016-05-25T11:04:57.034Z,20.72
2016-05-25T11:05:57.005Z,20.64
2016-05-25T11:06:57.007Z,20.71
2016-05-25T11:07:58.276Z,20.72
2016-05-25T11:08:56.981Z,20.69
2016-05-25T11:09:57.109Z,20.66
2016-05-25T11:10:56.956Z,20.75
2016-05-25T11:11:56.771Z,20.73
2016-05-25T11:12:59.398Z,20.73
2016-05-25T11:13:56.900Z,20.79
2016-05-25T11:14:56.888Z,20.76
2016-05-25T11:15:56.719Z,20.76
2016-05-25T11:16:57.175Z,20.72
2016-05-25T11:17:59.678Z,20.76
2016-05-25T11:18:56.853Z,20.76
2016-05-25T11:19:56.824Z,20.76
2016-05-25T11:20:56.654Z,20.73
2016-05-25T11:21:56.642Z,20.75
2016-05-25T11:22:58.269Z,20.72
2016-05-25T11:23:56.772Z,20.79
2016-05-25T11:24:56.696Z,20.81
2016-05-25T11:25:57.856Z,20.73
2016-05-25T11:26:56.436Z,20.69
2016-05-25T11:27:57.563Z,20.76
2016-05-25T11:28:56.723Z,20.75
2016-05-25T11:29:56.694Z,20.72
2016-05-25T11:30:56.525Z,20.79
2016-05-25T11:31:56.668Z,20.76
2016-05-25T11:32:57.015Z,20.76
2016-05-25T11:33:57.096Z,20.78
2016-05-25T11:34:56.646Z,20.72
2016-05-25T11:35:56.601Z,20.72
2016-05-25T11:36:56.587Z,20.81
2016-05-25T11:37:59.091Z,20.82
2016-05-25T11:38:56.562Z,20.83
2016-05-25T11:39:56.565Z,20.85
2016-05-25T11:40:56.537Z,20.87
2016-05-25T11:41:56.367Z,20.9
2016-05-25T11:42:56.854Z,20.91
2016-05-25T11:43:56.513Z,20.82
2016-05-25T11:44:56.500Z,20.88
2016-05-25T11:45:56.472Z,20.88
2016-05-25T11:46:56.475Z,20.82
2016-05-25T11:47:58.306Z,20.85
2016-05-25T11:48:56.292Z,20.87
2016-05-25T11:49:56.264Z,20.93
2016-05-25T11:50:56.422Z,20.88
2016-05-25T11:51:56.238Z,20.87
2016-05-25T11:52:56.397Z,20.85
2016-05-25T11:53:56.368Z,20.9
2016-05-25T11:54:56.355Z,20.93
2016-05-25T11:55:56.343Z,20.81
2016-05-25T11:56:56.173Z,20.72
2016-05-25T11:57:56.316Z,20.91
2016-05-25T11:58:56.147Z,20.91
2016-05-25T11:59:56.291Z,20.93
2016-05-25T12:00:56.293Z,20.73
2016-05-25T12:01:56.515Z,20.22
2016-05-25T12:02:56.487Z,19.92
2016-05-25T12:03:56.240Z,19.75
2016-05-25T12:04:56.210Z,19.6
2016-05-25T12:05:56.212Z,19.55
2016-05-25T12:06:56.184Z,19.45
2016-05-25T12:07:56.031Z,19.27
2016-05-25T12:08:56.003Z,19.5
2016-05-25T12:09:56.146Z,19.52
2016-05-25T12:10:56.133Z,19.68
2016-05-25T12:11:55.978Z,19.62
2016-05-25T12:12:56.123Z,19.71
2016-05-25T12:13:56.141Z,19.7
2016-05-25T12:14:56.128Z,19.61
2016-05-25T12:15:56.067Z,19.8
2016-05-25T12:16:56.070Z,19.94
2016-05-25T12:17:57.605Z,20.17
2016-05-25T12:18:55.873Z,20.37
2016-05-25T12:19:56.033Z,20.46
2016-05-25T12:20:56.003Z,20.53
2016-05-25T12:21:55.991Z,20.51
2016-05-25T12:22:57.775Z,20.61
2016-05-25T12:23:55.808Z,20.64
2016-05-25T12:24:55.967Z,20.71
2016-05-25T12:25:55.938Z,20.71
2016-05-25T12:26:55.769Z,20.63
2016-05-25T12:27:57.163Z,20.75
2016-05-25T12:28:55.744Z,20.79
2016-05-25T12:29:55.887Z,20.73
2016-05-25T12:30:56.155Z,20.71
2016-05-25T12:31:55.860Z,20.75
2016-05-25T12:32:57.488Z,20.79
2016-05-25T12:33:55.835Z,20.66
2016-05-25T12:34:55.651Z,20.72
2016-05-25T12:35:55.793Z,20.69
2016-05-25T12:36:55.781Z,20.75
2016-05-25T12:37:58.518Z,20.71
2016-05-25T12:38:56.146Z,20.76
2016-05-25T12:39:55.742Z,20.75
2016-05-25T12:40:55.573Z,20.83
2016-05-25T12:41:55.747Z,20.82
2016-05-25T12:42:55.703Z,20.83
2016-05-25T12:43:55.706Z,20.82
2016-05-25T12:44:55.678Z,20.87
2016-05-25T12:45:55.664Z,20.87
2016-05-25T12:46:55.448Z,20.87
2016-05-25T12:47:55.998Z,20.88
2016-05-25T12:48:55.626Z,20.87
2016-05-25T12:49:55.614Z,20.85
2016-05-25T12:50:55.443Z,20.91
2016-05-25T12:51:55.430Z,20.83
2016-05-25T12:52:55.574Z,20.83
2016-05-25T12:53:55.561Z,20.83
2016-05-25T12:54:55.439Z,20.97
2016-05-25T12:55:55.550Z,20.93